createdAt,value
2023-08-20T00:00:11.578Z,20.41
2023-08-20T00:01:11.615Z,20.41
2023-08-20T00:02:11.531Z,20.40
2023-08-20T00:03:10.923Z,20.39
2023-08-20T00:04:11.588Z,20.37
2023-08-20T00:05:11.521Z,20.37
2023-08-20T00:06:11.484Z,20.37
2023-08-20T00:07:11.494Z,20.37
2023-08-20T00:08:10.789Z,20.35
2023-08-20T00:09:11.475Z,20.34
2023-08-20T00:10:11.460Z,20.33
2023-08-20T00:11:11.433Z,20.32
2023-08-20T00:12:11.439Z,20.30
2023-08-20T00:13:11.431Z,20.29
2023-08-20T00:14:11.416Z,20.28
2023-08-20T00:15:11.390Z,20.26
2023-08-20T00:16:10.804Z,20.24
2023-08-20T00:17:10.697Z,20.21
2023-08-20T00:18:11.407Z,20.19
2023-08-20T00:19:11.365Z,20.18
2023-08-20T00:20:11.347Z,20.15
2023-08-20T00:21:11.341Z,20.13
2023-08-20T00:22:11.329Z,20.12
2023-08-20T00:23:11.322Z,20.09
2023-08-20T00:24:11.310Z,20.08
2023-08-20T00:25:11.283Z,20.06
2023-08-20T00:26:10.652Z,20.05
2023-08-20T00:27:11.277Z,20.03
2023-08-20T00:28:11.268Z,20.02
2023-08-20T00:29:11.235Z,20.02
2023-08-20T00:30:10.590Z,20.01
2023-08-20T00:31:10.607Z,19.99
2023-08-20T00:32:10.542Z,19.99
2023-08-20T00:33:11.261Z,19.98
2023-08-20T00:34:10.532Z,19.98
2023-08-20T00:35:11.239Z,19.97
2023-08-20T00:36:10.501Z,19.98
2023-08-20T00:37:10.487Z,19.97
2023-08-20T00:38:11.151Z,19.99
2023-08-20T00:39:11.124Z,19.97
2023-08-20T00:40:10.448Z,19.96
2023-08-20T00:41:10.450Z,19.96
2023-08-20T00:42:11.117Z,19.96
2023-08-20T00:43:10.471Z,19.94
2023-08-20T00:44:10.448Z,19.93
2023-08-20T00:45:11.872Z,19.92
2023-08-20T00:46:11.074Z,19.91
2023-08-20T00:47:11.049Z,19.89
2023-08-20T00:48:11.046Z,19.86
2023-08-20T00:49:10.375Z,19.85
2023-08-20T00:50:10.366Z,19.85
2023-08-20T00:51:11.008Z,19.83
2023-08-20T00:52:11.002Z,19.82
2023-08-20T00:53:10.964Z,19.80
2023-08-20T00:54:10.980Z,19.79
2023-08-20T00:55:10.302Z,19.77
2023-08-20T00:56:10.961Z,19.76
2023-08-20T00:57:10.930Z,19.74
2023-08-20T00:58:10.240Z,19.72
2023-08-20T00:59:10.923Z,19.71
2023-08-20T01:00:10.224Z,19.69
2023-08-20T01:01:10.242Z,19.68
2023-08-20T01:02:10.221Z,19.65
2023-08-20T01:03:10.925Z,19.63
2023-08-20T01:04:10.937Z,19.63
2023-08-20T01:05:10.182Z,19.60
2023-08-20T01:06:10.856Z,19.59
2023-08-20T01:07:10.182Z,19.58
2023-08-20T01:08:10.167Z,19.57
2023-08-20T01:09:10.814Z,19.56
2023-08-20T01:10:10.802Z,19.56
2023-08-20T01:11:10.774Z,19.55
2023-08-20T01:12:10.767Z,19.54
2023-08-20T01:13:10.788Z,19.54
2023-08-20T01:14:10.761Z,19.54
2023-08-20T01:15:10.752Z,19.54
2023-08-20T01:16:10.800Z,19.54
2023-08-20T01:17:10.045Z,19.53
2023-08-20T01:18:10.065Z,19.53
2023-08-20T01:19:10.078Z,19.52
2023-08-20T01:20:10.698Z,19.51
2023-08-20T01:21:10.671Z,19.50
2023-08-20T01:22:10.674Z,19.49
2023-08-20T01:23:09.964Z,19.48
2023-08-20T01:24:09.980Z,19.47
2023-08-20T01:25:10.618Z,19.46
2023-08-20T01:26:10.617Z,19.45
2023-08-20T01:27:10.631Z,19.44
2023-08-20T01:28:10.617Z,19.44
2023-08-20T01:29:09.918Z,19.43
2023-08-20T01:30:09.946Z,19.43
2023-08-20T01:31:10.617Z,19.42
2023-08-20T01:32:10.566Z,19.42
2023-08-20T01:33:09.938Z,19.42
2023-08-20T01:34:10.542Z,19.42
2023-08-20T01:35:10.524Z,19.41
2023-08-20T01:36:10.538Z,19.42
2023-08-20T01:37:10.527Z,19.41
2023-08-20T01:38:10.517Z,19.41
2023-08-20T01:39:10.473Z,19.41
2023-08-20T01:40:09.800Z,19.42
2023-08-20T01:41:10.474Z,19.42
2023-08-20T01:42:09.775Z,19.42
2023-08-20T01:43:10.483Z,19.42
2023-08-20T01:44:10.422Z,19.42
2023-08-20T01:45:09.746Z,19.42
2023-08-20T01:46:09.773Z,19.42
2023-08-20T01:47:09.753Z,19.42
2023-08-20T01:48:09.773Z,19.43
2023-08-20T01:49:10.364Z,19.43
2023-08-20T01:50:10.381Z,19.44
2023-08-20T01:51:10.362Z,19.44
2023-08-20T01:52:10.360Z,19.44
2023-08-20T01:53:10.322Z,19.43
2023-08-20T01:54:10.336Z,19.44
2023-08-20T01:55:10.316Z,19.44
2023-08-20T01:56:10.311Z,19.45
2023-08-20T01:57:10.300Z,19.44
2023-08-20T01:58:12.058Z,19.43
2023-08-20T01:59:10.282Z,19.43
2023-08-20T02:00:10.266Z,19.43
2023-08-20T02:01:10.286Z,19.42
2023-08-20T02:02:10.280Z,19.41
2023-08-20T02:03:11.706Z,19.40
2023-08-20T02:04:15.001Z,19.40
2023-08-20T02:05:11.228Z,19.39
2023-08-20T02:06:09.522Z,19.39
2023-08-20T02:07:10.185Z,19.37
2023-08-20T02:08:10.177Z,19.38
2023-08-20T02:09:09.489Z,19.37
2023-08-20T02:10:09.479Z,19.37
2023-08-20T02:11:10.159Z,19.36
2023-08-20T02:12:10.119Z,19.36
2023-08-20T02:13:10.129Z,19.36
2023-08-20T02:14:09.433Z,19.35
2023-08-20T02:15:09.417Z,19.35
2023-08-20T02:16:09.456Z,19.35
2023-08-20T02:17:09.409Z,19.35
2023-08-20T02:18:09.433Z,19.35
2023-08-20T02:19:10.073Z,19.35
2023-08-20T02:20:10.052Z,19.35
2023-08-20T02:21:10.034Z,19.35
2023-08-20T02:22:10.026Z,19.35
2023-08-20T02:23:10.018Z,19.35
2023-08-20T02:24:10.009Z,19.35
2023-08-20T02:25:09.331Z,19.35
2023-08-20T02:26:10.274Z,19.36
2023-08-20T02:27:09.289Z,19.37
2023-08-20T02:28:09.972Z,19.38
2023-08-20T02:29:09.954Z,19.38
2023-08-20T02:30:09.930Z,19.39
2023-08-20T02:31:09.931Z,19.41
2023-08-20T02:32:09.237Z,19.41
2023-08-20T02:33:09.285Z,19.43
2023-08-20T02:34:09.208Z,19.45
2023-08-20T02:35:09.873Z,19.46
2023-08-20T02:36:09.210Z,19.46
2023-08-20T02:37:09.866Z,19.47
2023-08-20T02:38:09.865Z,19.48
2023-08-20T02:39:09.848Z,19.49
2023-08-20T02:40:09.837Z,19.51
2023-08-20T02:41:09.849Z,19.50
2023-08-20T02:42:09.833Z,19.52
2023-08-20T02:43:09.828Z,19.52
2023-08-20T02:44:09.243Z,19.52
2023-08-20T02:45:10.075Z,19.52
2023-08-20T02:46:09.126Z,19.53
2023-08-20T02:47:09.789Z,19.53
2023-08-20T02:48:09.801Z,19.52
2023-08-20T02:49:09.880Z,19.52
2023-08-20T02:50:09.179Z,19.52
2023-08-20T02:51:09.123Z,19.52
2023-08-20T02:52:09.097Z,19.51
2023-08-20T02:53:09.263Z,19.51
2023-08-20T02:54:09.690Z,19.50
2023-08-20T02:55:09.255Z,19.49
2023-08-20T02:56:09.109Z,19.48
2023-08-20T02:57:09.738Z,19.48
2023-08-20T02:58:09.091Z,19.47
2023-08-20T02:59:09.050Z,19.47
2023-08-20T03:00:09.659Z,19.45
2023-08-20T03:01:09.137Z,19.43
2023-08-20T03:02:08.938Z,19.43
2023-08-20T03:03:09.045Z,19.43
2023-08-20T03:04:08.937Z,19.41
2023-08-20T03:05:09.568Z,19.39
2023-08-20T03:06:08.996Z,19.38
2023-08-20T03:07:08.967Z,19.36
2023-08-20T03:08:08.958Z,19.35
2023-08-20T03:09:09.623Z,19.32
2023-08-20T03:10:08.907Z,19.31
2023-08-20T03:11:09.534Z,19.31
2023-08-20T03:12:08.833Z,19.30
2023-08-20T03:13:09.510Z,19.29
2023-08-20T03:14:09.466Z,19.28
2023-08-20T03:15:08.951Z,19.27
2023-08-20T03:16:09.515Z,19.26
2023-08-20T03:17:09.480Z,19.26
2023-08-20T03:18:08.902Z,19.24
2023-08-20T03:19:09.785Z,19.24
2023-08-20T03:20:08.775Z,19.23
2023-08-20T03:21:08.767Z,19.23
2023-08-20T03:22:09.504Z,19.21
2023-08-20T03:23:08.858Z,19.20
2023-08-20T03:24:09.353Z,19.19
2023-08-20T03:25:09.433Z,19.19
2023-08-20T03:26:09.321Z,19.17
2023-08-20T03:27:08.825Z,19.16
2023-08-20T03:28:09.306Z,19.15
2023-08-20T03:29:08.684Z,19.14
2023-08-20T03:30:08.732Z,19.13
2023-08-20T03:31:08.754Z,19.12
2023-08-20T03:32:09.265Z,19.10
2023-08-20T03:33:09.316Z,19.06
2023-08-20T03:34:08.624Z,19.04
2023-08-20T03:35:08.777Z,18.98
2023-08-20T03:36:08.626Z,18.95
2023-08-20T03:37:09.595Z,18.93
2023-08-20T03:38:08.519Z,18.91
2023-08-20T03:39:09.196Z,18.89
2023-08-20T03:40:09.178Z,18.88
2023-08-20T03:41:08.548Z,18.87
2023-08-20T03:42:09.175Z,18.84
2023-08-20T03:43:09.144Z,18.82
2023-08-20T03:44:08.475Z,18.81
2023-08-20T03:45:08.479Z,18.80
2023-08-20T03:46:09.195Z,18.78
2023-08-20T03:47:10.880Z,18.78
2023-08-20T03:48:09.142Z,18.78
2023-08-20T03:49:08.428Z,18.77
2023-08-20T03:50:09.049Z,18.76
2023-08-20T03:51:08.381Z,18.73
2023-08-20T03:52:09.046Z,18.73
2023-08-20T03:53:08.357Z,18.73
2023-08-20T03:54:09.001Z,18.72
2023-08-20T03:55:08.357Z,18.72
2023-08-20T03:56:09.005Z,18.72
2023-08-20T03:57:08.985Z,18.72
2023-08-20T03:58:08.993Z,18.72
2023-08-20T03:59:08.951Z,18.73
2023-08-20T04:00:08.961Z,18.73
2023-08-20T04:01:08.292Z,18.73
2023-08-20T04:02:08.935Z,18.75
2023-08-20T04:03:08.922Z,18.76
2023-08-20T04:04:08.931Z,18.77
2023-08-20T04:05:08.902Z,18.78
2023-08-20T04:06:08.891Z,18.78
2023-08-20T04:07:08.201Z,18.79
2023-08-20T04:08:08.854Z,18.80
2023-08-20T04:09:08.841Z,18.80
2023-08-20T04:10:08.168Z,18.80
2023-08-20T04:11:08.832Z,18.81
2023-08-20T04:12:08.138Z,18.81
2023-08-20T04:13:08.146Z,18.82
2023-08-20T04:14:08.805Z,18.82
2023-08-20T04:15:08.117Z,18.82
2023-08-20T04:16:08.855Z,18.83
2023-08-20T04:17:08.093Z,18.83
2023-08-20T04:18:08.796Z,18.83
2023-08-20T04:19:08.748Z,18.84
2023-08-20T04:20:08.062Z,18.84
2023-08-20T04:21:08.051Z,18.84
2023-08-20T04:22:08.057Z,18.84
2023-08-20T04:23:08.693Z,18.85
2023-08-20T04:24:08.033Z,18.85
2023-08-20T04:25:10.462Z,18.86
2023-08-20T04:26:08.665Z,18.87
2023-08-20T04:27:07.998Z,18.88
2023-08-20T04:28:07.972Z,18.88
2023-08-20T04:29:08.644Z,18.89
2023-08-20T04:30:08.636Z,18.90
2023-08-20T04:31:08.643Z,18.91
2023-08-20T04:32:08.592Z,18.92
2023-08-20T04:33:08.606Z,18.93
2023-08-20T04:34:08.579Z,18.93
2023-08-20T04:35:07.926Z,18.95
2023-08-20T04:36:08.551Z,18.97
2023-08-20T04:37:08.557Z,18.98
2023-08-20T04:38:08.553Z,19.00
2023-08-20T04:39:08.522Z,19.04
2023-08-20T04:40:08.520Z,19.04
2023-08-20T04:41:08.493Z,19.06
2023-08-20T04:42:08.491Z,19.09
2023-08-20T04:43:08.478Z,19.11
2023-08-20T04:44:08.473Z,19.15
2023-08-20T04:45:08.437Z,19.19
2023-08-20T04:46:08.424Z,19.25
2023-08-20T04:47:08.439Z,19.28
2023-08-20T04:48:08.510Z,19.35
2023-08-20T04:49:08.415Z,19.41
2023-08-20T04:50:08.398Z,19.47
2023-08-20T04:51:08.390Z,19.54
2023-08-20T04:52:08.377Z,19.60
2023-08-20T04:53:08.369Z,19.67
2023-08-20T04:54:08.367Z,19.74
2023-08-20T04:55:08.331Z,19.82
2023-08-20T04:56:08.339Z,19.88
2023-08-20T04:57:08.352Z,19.96
2023-08-20T04:58:08.314Z,20.04
2023-08-20T04:59:08.288Z,20.12
2023-08-20T05:00:08.274Z,20.20
2023-08-20T05:01:08.342Z,20.28
2023-08-20T05:02:08.271Z,20.37
2023-08-20T05:03:08.368Z,20.45
2023-08-20T05:04:07.714Z,20.55
2023-08-20T05:05:08.247Z,20.64
2023-08-20T05:06:08.229Z,20.74
2023-08-20T05:07:08.214Z,20.84
2023-08-20T05:08:08.205Z,20.93
2023-08-20T05:09:08.181Z,21.05
2023-08-20T05:10:08.190Z,21.16
2023-08-20T05:11:08.177Z,21.26
2023-08-20T05:12:08.169Z,21.37
2023-08-20T05:13:08.134Z,21.51
2023-08-20T05:14:08.123Z,21.65
2023-08-20T05:15:08.128Z,21.77
2023-08-20T05:16:08.142Z,21.88
2023-08-20T05:17:08.110Z,22.00
2023-08-20T05:18:08.099Z,22.15
2023-08-20T05:19:08.094Z,22.32
2023-08-20T05:20:08.074Z,22.47
2023-08-20T05:21:08.061Z,22.65
2023-08-20T05:22:08.049Z,22.89
2023-08-20T05:23:08.031Z,23.18
2023-08-20T05:24:09.801Z,23.50
2023-08-20T05:25:08.025Z,23.82
2023-08-20T05:26:08.013Z,24.16
2023-08-20T05:27:07.980Z,24.51
2023-08-20T05:28:07.974Z,24.84
2023-08-20T05:29:07.977Z,25.19
2023-08-20T05:30:07.976Z,25.54
2023-08-20T05:31:07.295Z,25.90
2023-08-20T05:32:07.275Z,26.26
2023-08-20T05:33:08.006Z,26.62
2023-08-20T05:34:07.949Z,26.97
2023-08-20T05:35:07.923Z,27.33
2023-08-20T05:36:07.898Z,27.66
2023-08-20T05:37:07.884Z,27.99
2023-08-20T05:38:07.893Z,28.31
2023-08-20T05:39:07.870Z,28.62
2023-08-20T05:40:07.856Z,28.92
2023-08-20T05:41:07.825Z,29.21
2023-08-20T05:42:07.819Z,29.49
2023-08-20T05:43:07.836Z,29.74
2023-08-20T05:44:07.824Z,30.01
2023-08-20T05:45:07.802Z,30.26
2023-08-20T05:46:07.809Z,30.50
2023-08-20T05:47:07.791Z,30.73
2023-08-20T05:48:07.779Z,30.97
2023-08-20T05:49:07.788Z,31.21
2023-08-20T05:50:07.748Z,31.43
2023-08-20T05:51:07.717Z,31.62
2023-08-20T05:52:07.750Z,31.80
2023-08-20T05:53:07.713Z,31.97
2023-08-20T05:54:07.709Z,32.13
2023-08-20T05:55:07.692Z,32.31
2023-08-20T05:56:07.667Z,32.49
2023-08-20T05:57:07.673Z,32.68
2023-08-20T05:58:07.661Z,32.88
2023-08-20T05:59:07.663Z,33.08
2023-08-20T06:00:07.661Z,33.29
2023-08-20T06:01:07.633Z,33.50
2023-08-20T06:02:07.622Z,33.70
2023-08-20T06:03:07.687Z,33.89
2023-08-20T06:04:07.593Z,34.08
2023-08-20T06:05:07.585Z,34.26
2023-08-20T06:06:09.475Z,34.44
2023-08-20T06:07:07.576Z,34.61
2023-08-20T06:08:07.568Z,34.78
2023-08-20T06:09:09.753Z,34.97
2023-08-20T06:10:07.518Z,35.13
2023-08-20T06:11:06.841Z,35.25
2023-08-20T06:12:07.521Z,35.30
2023-08-20T06:13:06.813Z,35.29
2023-08-20T06:14:07.478Z,35.26
2023-08-20T06:15:07.482Z,35.21
2023-08-20T06:17:07.468Z,35.25
2023-08-20T06:18:07.502Z,35.27
2023-08-20T06:19:07.470Z,35.30
2023-08-20T06:20:07.421Z,35.37
2023-08-20T06:21:07.410Z,35.45
2023-08-20T06:22:07.408Z,35.60
2023-08-20T06:23:07.393Z,35.76
2023-08-20T06:24:07.382Z,35.94
2023-08-20T06:25:07.371Z,36.09
2023-08-20T06:26:07.360Z,36.27
2023-08-20T06:27:07.350Z,36.42
2023-08-20T06:28:06.672Z,36.56
2023-08-20T06:29:09.130Z,36.67
2023-08-20T06:30:06.641Z,36.78
2023-08-20T06:31:07.317Z,36.89
2023-08-20T06:32:07.339Z,37.02
2023-08-20T06:33:07.331Z,37.17
2023-08-20T06:34:07.289Z,37.34
2023-08-20T06:35:07.262Z,37.47
2023-08-20T06:36:06.566Z,37.60
2023-08-20T06:37:06.586Z,37.66
2023-08-20T06:38:06.568Z,37.73
2023-08-20T06:39:07.233Z,37.83
2023-08-20T06:40:07.254Z,37.97
2023-08-20T06:41:07.209Z,38.13
2023-08-20T06:42:07.175Z,38.31
2023-08-20T06:43:07.186Z,38.52
2023-08-20T06:44:07.175Z,38.72
2023-08-20T06:45:07.164Z,38.94
2023-08-20T06:46:07.202Z,39.17
2023-08-20T06:47:07.136Z,39.38
2023-08-20T06:48:07.158Z,39.59
2023-08-20T06:49:07.113Z,39.80
2023-08-20T06:50:07.143Z,39.96
2023-08-20T06:51:07.081Z,40.11
2023-08-20T06:52:07.066Z,40.24
2023-08-20T06:53:07.073Z,40.31
2023-08-20T06:54:07.085Z,40.34
2023-08-20T06:55:07.053Z,40.40
2023-08-20T06:56:07.028Z,40.49
2023-08-20T06:57:07.035Z,40.62
2023-08-20T06:58:07.018Z,40.75
2023-08-20T06:59:06.331Z,40.93
2023-08-20T07:00:06.354Z,41.14
2023-08-20T07:01:06.348Z,41.35
2023-08-20T07:02:06.321Z,41.55
2023-08-20T07:03:07.130Z,41.77
2023-08-20T07:04:06.955Z,41.98
2023-08-20T07:05:06.447Z,42.21
2023-08-20T07:06:09.030Z,42.44
2023-08-20T07:07:06.226Z,42.67
2023-08-20T07:08:06.962Z,42.87
2023-08-20T07:09:06.912Z,43.03
2023-08-20T07:10:06.875Z,43.18
2023-08-20T07:11:06.871Z,43.34
2023-08-20T07:12:06.879Z,43.49
2023-08-20T07:13:06.224Z,43.66
2023-08-20T07:14:06.854Z,43.81
2023-08-20T07:15:06.834Z,44.00
2023-08-20T07:16:06.895Z,44.16
2023-08-20T07:17:06.822Z,44.31
2023-08-20T07:18:06.155Z,44.39
2023-08-20T07:19:06.808Z,44.49
2023-08-20T07:20:06.841Z,44.61
2023-08-20T07:21:06.783Z,44.77
2023-08-20T07:22:06.805Z,44.82
2023-08-20T07:23:06.148Z,44.90
2023-08-20T07:24:06.099Z,44.99
2023-08-20T07:25:06.728Z,45.06
2023-08-20T07:26:06.732Z,45.13
2023-08-20T07:27:06.035Z,45.27
2023-08-20T07:28:06.705Z,45.44
2023-08-20T07:29:06.679Z,45.63
2023-08-20T07:30:06.686Z,45.77
2023-08-20T07:31:06.136Z,45.89
2023-08-20T07:32:06.666Z,45.97
2023-08-20T07:33:06.710Z,46.07
2023-08-20T07:34:06.741Z,46.16
2023-08-20T07:35:11.529Z,46.21
2023-08-20T07:36:05.935Z,46.22
2023-08-20T07:37:06.616Z,46.22
2023-08-20T07:38:05.941Z,46.22
2023-08-20T07:39:06.591Z,46.25
2023-08-20T07:40:05.891Z,46.26
2023-08-20T07:41:06.612Z,46.24
2023-08-20T07:42:05.867Z,46.21
2023-08-20T07:43:06.539Z,46.15
2023-08-20T07:44:06.537Z,46.11
2023-08-20T07:45:06.529Z,46.09
2023-08-20T07:46:05.856Z,46.14
2023-08-20T07:47:05.818Z,46.23
2023-08-20T07:48:07.472Z,46.37
2023-08-20T07:49:06.490Z,46.55
2023-08-20T07:50:06.475Z,46.69
2023-08-20T07:51:05.802Z,46.76
2023-08-20T07:52:06.443Z,46.85
2023-08-20T07:53:05.781Z,46.93
2023-08-20T07:54:06.443Z,46.94
2023-08-20T07:55:05.731Z,46.99
2023-08-20T07:56:05.725Z,47.08
2023-08-20T07:57:08.181Z,47.11
2023-08-20T07:58:05.698Z,47.14
2023-08-20T07:59:06.388Z,47.24
2023-08-20T08:00:06.375Z,47.34
2023-08-20T08:01:05.763Z,47.44
2023-08-20T08:02:06.335Z,47.54
2023-08-20T08:03:06.409Z,47.67
2023-08-20T08:04:06.379Z,47.77
2023-08-20T08:05:06.335Z,47.85
2023-08-20T08:06:06.295Z,47.90
2023-08-20T08:07:06.303Z,47.96
2023-08-20T08:08:06.295Z,48.02
2023-08-20T08:09:05.578Z,48.08
2023-08-20T08:10:06.281Z,48.17
2023-08-20T08:11:06.244Z,48.26
2023-08-20T08:12:06.254Z,48.37
2023-08-20T08:13:06.258Z,48.51
2023-08-20T08:14:05.750Z,48.64
2023-08-20T08:15:05.557Z,48.75
2023-08-20T08:16:06.209Z,48.78
2023-08-20T08:17:06.199Z,48.81
2023-08-20T08:18:06.255Z,48.88
2023-08-20T08:19:05.494Z,48.91
2023-08-20T08:20:05.501Z,48.78
2023-08-20T08:21:05.490Z,48.75
2023-08-20T08:22:05.479Z,48.82
2023-08-20T08:23:06.192Z,48.85
2023-08-20T08:24:05.473Z,48.87
2023-08-20T08:25:06.103Z,48.83
2023-08-20T08:26:05.434Z,48.46
2023-08-20T08:27:06.100Z,48.28
2023-08-20T08:28:06.122Z,48.17
2023-08-20T08:29:06.063Z,48.05
2023-08-20T08:30:05.410Z,47.94
2023-08-20T08:31:08.099Z,47.83
2023-08-20T08:32:06.050Z,47.70
2023-08-20T08:33:06.127Z,47.57
2023-08-20T08:34:06.005Z,47.41
2023-08-20T08:35:05.352Z,47.23
2023-08-20T08:36:06.001Z,47.08
2023-08-20T08:37:05.997Z,46.95
2023-08-20T08:38:05.988Z,46.75
2023-08-20T08:39:05.959Z,46.58
2023-08-20T08:40:05.976Z,46.38
2023-08-20T08:41:05.966Z,46.26
2023-08-20T08:42:05.988Z,46.21
2023-08-20T08:43:05.919Z,46.17
2023-08-20T08:44:05.925Z,46.08
2023-08-20T08:45:05.921Z,46.00
2023-08-20T08:46:05.266Z,46.02
2023-08-20T08:47:05.224Z,46.03
2023-08-20T08:48:05.915Z,46.08
2023-08-20T08:49:05.875Z,46.24
2023-08-20T08:50:05.192Z,46.29
2023-08-20T08:51:05.853Z,46.33
2023-08-20T08:52:05.876Z,46.44
2023-08-20T08:53:05.813Z,46.50
2023-08-20T08:54:05.823Z,46.10
2023-08-20T08:55:05.811Z,45.02
2023-08-20T08:56:05.805Z,44.82
2023-08-20T08:57:05.791Z,44.99
2023-08-20T08:58:05.771Z,44.63
2023-08-20T08:59:05.099Z,44.25
2023-08-20T09:00:05.764Z,43.40
2023-08-20T09:01:05.792Z,42.58
2023-08-20T09:02:05.734Z,41.86
2023-08-20T09:03:05.770Z,41.25
2023-08-20T09:04:05.052Z,40.64
2023-08-20T09:05:05.730Z,40.12
2023-08-20T09:06:05.038Z,39.92
2023-08-20T09:07:05.671Z,40.51
2023-08-20T09:08:04.989Z,41.08
2023-08-20T09:09:04.979Z,41.58
2023-08-20T09:10:04.992Z,41.57
2023-08-20T09:11:04.983Z,40.95
2023-08-20T09:12:05.672Z,40.39
2023-08-20T09:13:05.626Z,39.87
2023-08-20T09:14:04.953Z,39.43
2023-08-20T09:15:05.617Z,39.02
2023-08-20T09:16:05.031Z,38.62
2023-08-20T09:17:05.585Z,38.25
2023-08-20T09:18:05.006Z,37.88
2023-08-20T09:19:05.572Z,37.49
2023-08-20T09:20:04.927Z,37.12
2023-08-20T09:21:05.525Z,36.79
2023-08-20T09:22:05.536Z,36.53
2023-08-20T09:23:04.872Z,36.30
2023-08-20T09:24:05.735Z,36.15
2023-08-20T09:25:05.487Z,36.26
2023-08-20T09:26:05.497Z,36.43
2023-08-20T09:27:05.488Z,36.30
2023-08-20T09:28:04.825Z,36.13
2023-08-20T09:29:04.787Z,35.92
2023-08-20T09:30:05.430Z,35.73
2023-08-20T09:31:05.467Z,35.69
2023-08-20T09:32:05.443Z,35.69
2023-08-20T09:33:04.793Z,35.74
2023-08-20T09:34:04.738Z,35.77
2023-08-20T09:35:04.742Z,35.77
2023-08-20T09:36:04.722Z,35.72
2023-08-20T09:37:05.380Z,35.63
2023-08-20T09:38:04.678Z,35.57
2023-08-20T09:39:05.332Z,35.56
2023-08-20T09:40:04.678Z,35.71
2023-08-20T09:41:04.652Z,35.64
2023-08-20T09:42:05.344Z,35.52
2023-08-20T09:43:04.639Z,35.70
2023-08-20T09:44:04.648Z,35.57
2023-08-20T09:45:04.621Z,35.49
2023-08-20T09:46:04.680Z,35.87
2023-08-20T09:47:05.273Z,35.82
2023-08-20T09:48:05.293Z,35.59
2023-08-20T09:49:05.238Z,35.32
2023-08-20T09:50:05.242Z,35.07
2023-08-20T09:51:05.233Z,34.96
2023-08-20T09:52:04.538Z,34.72
2023-08-20T09:53:05.200Z,34.47
2023-08-20T09:54:05.216Z,34.24
2023-08-20T09:55:05.197Z,34.03
2023-08-20T09:56:04.493Z,33.82
2023-08-20T09:57:04.488Z,33.63
2023-08-20T09:58:05.139Z,33.46
2023-08-20T09:59:05.148Z,33.39
2023-08-20T10:00:05.133Z,33.45
2023-08-20T10:01:04.466Z,33.37
2023-08-20T10:02:05.095Z,33.22
2023-08-20T10:03:04.465Z,33.11
2023-08-20T10:04:04.450Z,33.70
2023-08-20T10:05:04.406Z,34.05
2023-08-20T10:06:05.071Z,34.14
2023-08-20T10:07:05.039Z,34.08
2023-08-20T10:08:04.394Z,34.00
2023-08-20T10:09:04.361Z,33.86
2023-08-20T10:10:04.378Z,33.72
2023-08-20T10:11:04.343Z,33.86
2023-08-20T10:12:04.992Z,33.70
2023-08-20T10:13:04.320Z,33.57
2023-08-20T10:14:04.296Z,33.42
2023-08-20T10:15:04.297Z,33.26
2023-08-20T10:16:04.377Z,33.10
2023-08-20T10:17:04.286Z,33.42
2023-08-20T10:18:04.986Z,34.19
2023-08-20T10:19:05.147Z,34.87
2023-08-20T10:20:04.230Z,35.86
2023-08-20T10:21:05.137Z,36.30
2023-08-20T10:22:04.208Z,36.50
2023-08-20T10:23:04.884Z,37.53
2023-08-20T10:24:04.185Z,38.53
2023-08-20T10:25:04.870Z,39.46
2023-08-20T10:26:04.851Z,40.37
2023-08-20T10:27:04.171Z,41.23
2023-08-20T10:28:04.169Z,41.98
2023-08-20T10:29:05.101Z,42.64
2023-08-20T10:30:04.205Z,43.21
2023-08-20T10:31:04.819Z,43.70
2023-08-20T10:32:04.794Z,44.08
2023-08-20T10:33:04.907Z,44.37
2023-08-20T10:34:04.101Z,44.58
2023-08-20T10:35:04.741Z,44.75
2023-08-20T10:36:04.755Z,44.89
2023-08-20T10:37:04.054Z,45.03
2023-08-20T10:38:04.761Z,45.13
2023-08-20T10:39:04.048Z,45.23
2023-08-20T10:40:04.697Z,45.24
2023-08-20T10:41:04.704Z,44.60
2023-08-20T10:42:04.690Z,44.03
2023-08-20T10:43:04.683Z,43.84
2023-08-20T10:44:04.007Z,43.04
2023-08-20T10:45:04.673Z,42.50
2023-08-20T10:46:06.536Z,41.71
2023-08-20T10:47:04.634Z,40.87
2023-08-20T10:48:04.692Z,40.15
2023-08-20T10:49:04.642Z,39.60
2023-08-20T10:50:03.926Z,39.25
2023-08-20T10:51:04.617Z,38.95
2023-08-20T10:52:04.578Z,38.75
2023-08-20T10:53:04.576Z,38.57
2023-08-20T10:54:04.558Z,38.35
2023-08-20T10:55:03.872Z,38.19
2023-08-20T10:56:04.550Z,38.07
2023-08-20T10:57:03.867Z,37.93
2023-08-20T10:58:04.505Z,37.79
2023-08-20T10:59:04.489Z,37.62
2023-08-20T11:00:04.503Z,37.47
2023-08-20T11:01:03.837Z,37.33
2023-08-20T11:02:04.587Z,37.18
2023-08-20T11:03:04.511Z,36.97
2023-08-20T11:04:03.777Z,36.74
2023-08-20T11:05:03.761Z,36.59
2023-08-20T11:06:04.446Z,36.47
2023-08-20T11:07:04.427Z,36.36
2023-08-20T11:08:03.750Z,36.30
2023-08-20T11:09:03.719Z,36.23
2023-08-20T11:10:04.425Z,36.12
2023-08-20T11:11:04.389Z,35.96
2023-08-20T11:12:03.709Z,35.75
2023-08-20T11:13:03.705Z,35.58
2023-08-20T11:14:03.699Z,35.45
2023-08-20T11:15:04.348Z,35.37
2023-08-20T11:16:04.337Z,35.30
2023-08-20T11:17:04.336Z,35.26
2023-08-20T11:18:04.377Z,35.25
2023-08-20T11:19:03.635Z,35.22
2023-08-20T11:20:08.918Z,35.19
2023-08-20T11:21:05.276Z,35.12
2023-08-20T11:22:03.624Z,35.06
2023-08-20T11:23:04.262Z,34.96
2023-08-20T11:24:03.582Z,34.85
2023-08-20T11:25:04.242Z,34.76
2023-08-20T11:26:03.565Z,34.71
2023-08-20T11:27:03.568Z,34.72
2023-08-20T11:28:04.223Z,34.71
2023-08-20T11:29:03.512Z,34.71
2023-08-20T11:30:04.182Z,34.69
2023-08-20T11:31:04.221Z,34.63
2023-08-20T11:32:03.493Z,34.55
2023-08-20T11:33:04.191Z,34.51
2023-08-20T11:34:04.160Z,34.51
2023-08-20T11:35:04.139Z,34.46
2023-08-20T11:36:06.294Z,34.35
2023-08-20T11:37:04.123Z,34.27
2023-08-20T11:38:04.103Z,34.27
2023-08-20T11:39:04.124Z,34.28
2023-08-20T11:40:04.080Z,34.20
2023-08-20T11:41:04.049Z,34.15
2023-08-20T11:42:05.737Z,34.12
2023-08-20T11:43:04.056Z,34.09
2023-08-20T11:44:04.033Z,34.06
2023-08-20T11:45:04.006Z,34.06
2023-08-20T11:46:04.146Z,34.10
2023-08-20T11:47:04.019Z,34.09
2023-08-20T11:48:03.362Z,34.07
2023-08-20T11:49:03.314Z,34.05
2023-08-20T11:50:03.301Z,34.02
2023-08-20T11:51:03.977Z,33.95
2023-08-20T11:52:03.954Z,33.84
2023-08-20T11:53:03.958Z,33.76
2023-08-20T11:54:03.923Z,33.68
2023-08-20T11:55:03.903Z,33.62
2023-08-20T11:56:03.949Z,33.56
2023-08-20T11:57:03.899Z,33.51
2023-08-20T11:58:03.903Z,33.45
2023-08-20T11:59:03.862Z,33.45
2023-08-20T12:00:03.872Z,33.50
2023-08-20T12:01:03.923Z,33.54
2023-08-20T12:02:03.855Z,33.55
2023-08-20T12:03:03.896Z,33.53
2023-08-20T12:04:03.898Z,33.49
2023-08-20T12:05:05.573Z,33.43
2023-08-20T12:06:03.861Z,33.39
2023-08-20T12:07:03.792Z,33.40
2023-08-20T12:08:03.788Z,33.46
2023-08-20T12:09:03.762Z,33.43
2023-08-20T12:10:03.761Z,33.43
2023-08-20T12:11:03.753Z,33.43
2023-08-20T12:12:03.065Z,33.37
2023-08-20T12:13:03.071Z,33.33
2023-08-20T12:14:03.715Z,33.38
2023-08-20T12:15:03.040Z,33.38
2023-08-20T12:16:03.760Z,33.39
2023-08-20T12:17:03.021Z,33.35
2023-08-20T12:18:05.803Z,33.31
2023-08-20T12:19:02.981Z,33.28
2023-08-20T12:20:02.983Z,33.26
2023-08-20T12:21:05.443Z,33.21
2023-08-20T12:22:03.681Z,33.16
2023-08-20T12:23:03.628Z,33.12
2023-08-20T12:24:03.617Z,33.06
2023-08-20T12:25:02.928Z,33.01
2023-08-20T12:26:03.640Z,32.95
2023-08-20T12:27:03.594Z,32.96
2023-08-20T12:28:02.892Z,32.97
2023-08-20T12:29:03.554Z,33.01
2023-08-20T12:30:02.894Z,33.05
2023-08-20T12:31:03.563Z,33.09
2023-08-20T12:32:03.505Z,33.09
2023-08-20T12:33:02.874Z,33.10
2023-08-20T12:34:03.508Z,33.12
2023-08-20T12:35:03.499Z,33.13
2023-08-20T12:36:03.530Z,33.12
2023-08-20T12:37:03.469Z,33.09
2023-08-20T12:38:03.465Z,33.04
2023-08-20T12:39:02.766Z,32.97
2023-08-20T12:40:03.452Z,32.91
2023-08-20T12:41:03.409Z,32.83
2023-08-20T12:42:02.741Z,32.78
2023-08-20T12:43:02.719Z,32.73
2023-08-20T12:44:03.398Z,32.71
2023-08-20T12:45:03.382Z,32.71
2023-08-20T12:46:03.464Z,32.70
2023-08-20T12:47:02.684Z,32.69
2023-08-20T12:48:03.251Z,32.67
2023-08-20T12:49:03.341Z,32.66
2023-08-20T12:50:03.331Z,32.64
2023-08-20T12:51:02.645Z,32.61
2023-08-20T12:52:02.624Z,32.55
2023-08-20T12:53:03.314Z,32.51